createdAt,value
2023-05-14T00:00:19.221Z,11.27
2023-05-14T00:02:49.746Z,11.24
2023-05-14T00:05:16.209Z,11.20
2023-05-14T00:07:42.764Z,11.18
2023-05-14T00:10:09.606Z,11.15
2023-05-14T00:12:35.901Z,11.05
2023-05-14T00:15:02.558Z,11.06
2023-05-14T00:17:28.979Z,11.11
2023-05-14T00:19:55.442Z,10.96
2023-05-14T00:22:21.851Z,10.89
2023-05-14T00:24:48.248Z,10.88
2023-05-14T00:27:14.735Z,10.89
2023-05-14T00:29:41.117Z,10.92
2023-05-14T00:32:07.878Z,10.92
2023-05-14T00:34:35.694Z,10.89
2023-05-14T00:37:02.110Z,10.90
2023-05-14T00:39:28.431Z,10.88
2023-05-14T00:41:54.784Z,10.92
2023-05-14T00:44:21.104Z,10.90
2023-05-14T00:46:47.592Z,10.80
2023-05-14T00:49:14.375Z,10.72
2023-05-14T00:51:41.472Z,10.69
2023-05-14T00:54:08.137Z,10.57
2023-05-14T00:56:34.824Z,10.57
2023-05-14T00:59:01.378Z,10.65
2023-05-14T01:01:28.601Z,10.71
2023-05-14T01:03:57.600Z,10.68
2023-05-14T01:06:27.255Z,10.64
2023-05-14T01:09:03.281Z,10.63
2023-05-14T01:11:37.762Z,10.52
2023-05-14T01:14:38.291Z,10.49
2023-05-14T01:17:06.240Z,10.42
2023-05-14T01:19:40.484Z,10.29
2023-05-14T01:22:06.855Z,10.26
2023-05-14T01:24:33.360Z,10.21
2023-05-14T01:27:23.828Z,10.20
2023-05-14T01:30:02.760Z,10.15
2023-05-14T01:32:30.832Z,10.14
2023-05-14T01:34:59.362Z,10.13
2023-05-14T01:37:28.002Z,10.05
2023-05-14T01:39:56.061Z,9.97
2023-05-14T01:42:23.220Z,10.01
2023-05-14T01:44:49.805Z,9.94
2023-05-14T01:47:16.180Z,9.89
2023-05-14T01:49:42.493Z,9.82
2023-05-14T01:52:08.792Z,9.86
2023-05-14T01:54:35.313Z,9.92
2023-05-14T01:57:01.599Z,9.82
2023-05-14T01:59:29.732Z,9.79
2023-05-14T02:01:56.235Z,9.83
2023-05-14T02:04:22.695Z,9.83
2023-05-14T02:06:49.123Z,9.76
2023-05-14T02:09:15.601Z,9.77
2023-05-14T02:11:41.950Z,9.71
2023-05-14T02:14:08.280Z,9.70
2023-05-14T02:16:34.675Z,9.71
2023-05-14T02:19:01.073Z,9.78
2023-05-14T02:21:27.602Z,9.84
2023-05-14T02:23:53.948Z,9.83
2023-05-14T02:26:21.367Z,9.69
2023-05-14T02:28:47.852Z,9.49
2023-05-14T02:31:14.431Z,9.47
2023-05-14T02:33:40.966Z,9.55
2023-05-14T02:36:07.564Z,9.58
2023-05-14T02:38:33.876Z,9.59
2023-05-14T02:41:00.314Z,9.48
2023-05-14T02:43:26.745Z,9.45
2023-05-14T02:45:53.081Z,9.46
2023-05-14T02:48:19.464Z,9.46
2023-05-14T02:50:46.816Z,9.35
2023-05-14T02:53:13.170Z,9.43
2023-05-14T02:55:39.523Z,9.39
2023-05-14T02:58:05.930Z,9.36
2023-05-14T03:00:32.403Z,9.27
2023-05-14T03:02:59.242Z,9.18
2023-05-14T03:05:25.996Z,9.18
2023-05-14T03:07:53.645Z,9.22
2023-05-14T03:10:20.565Z,9.25
2023-05-14T03:12:47.456Z,9.26
2023-05-14T03:15:14.936Z,9.29
2023-05-14T03:17:41.423Z,9.29
2023-05-14T03:20:08.358Z,9.28
2023-05-14T03:22:34.661Z,9.33
2023-05-14T03:25:01.112Z,9.28
2023-05-14T03:27:27.456Z,9.28
2023-05-14T03:29:53.786Z,9.21
2023-05-14T03:32:21.185Z,9.24
2023-05-14T03:34:47.639Z,9.14
2023-05-14T03:37:14.004Z,9.15
2023-05-14T03:39:40.361Z,9.20
2023-05-14T03:42:06.772Z,9.23
2023-05-14T03:44:33.185Z,9.20
2023-05-14T03:46:59.581Z,9.07
2023-05-14T03:49:26.011Z,9.09
2023-05-14T03:51:52.376Z,9.02
2023-05-14T03:54:18.736Z,9.04
2023-05-14T03:56:45.834Z,9.05
2023-05-14T03:59:12.141Z,9.07
2023-05-14T04:01:38.520Z,9.05
2023-05-14T04:04:05.039Z,9.06
2023-05-14T04:06:31.423Z,9.12
2023-05-14T04:08:57.760Z,9.12
2023-05-14T04:11:24.091Z,9.08
2023-05-14T04:13:50.559Z,8.99
2023-05-14T04:16:16.932Z,9.01
2023-05-14T04:18:43.323Z,8.97
2023-05-14T04:21:09.750Z,9.02
2023-05-14T04:23:36.104Z,9.07
2023-05-14T04:26:02.515Z,9.04
2023-05-14T04:28:28.857Z,8.94
2023-05-14T04:30:55.368Z,8.93
2023-05-14T04:33:21.722Z,8.99
2023-05-14T04:35:48.336Z,8.96
2023-05-14T04:38:14.706Z,9.01
2023-05-14T04:40:43.750Z,9.02
2023-05-14T04:43:10.656Z,9.06
2023-05-14T04:45:37.114Z,9.13
2023-05-14T04:48:04.707Z,9.12
2023-05-14T04:50:31.258Z,9.15
2023-05-14T04:52:57.685Z,9.22
2023-05-14T04:55:24.278Z,9.24
2023-05-14T04:57:50.700Z,9.23
2023-05-14T05:00:17.679Z,9.27
2023-05-14T05:02:44.063Z,9.31
2023-05-14T05:05:10.658Z,9.40
2023-05-14T05:07:37.008Z,9.41
2023-05-14T05:10:03.565Z,9.47
2023-05-14T05:12:30.203Z,9.54
2023-05-14T05:14:57.289Z,9.59
2023-05-14T05:17:24.680Z,9.68
2023-05-14T05:19:51.098Z,9.70
2023-05-14T05:22:17.478Z,9.76
2023-05-14T05:24:43.833Z,9.80
2023-05-14T05:27:10.221Z,9.89
2023-05-14T05:29:37.109Z,9.91
2023-05-14T05:32:03.857Z,9.98
2023-05-14T05:34:30.389Z,9.97
2023-05-14T05:36:57.115Z,9.99
2023-05-14T05:39:23.462Z,10.07
2023-05-14T05:41:49.810Z,10.11
2023-05-14T05:44:16.150Z,10.19
2023-05-14T05:46:42.565Z,10.25
2023-05-14T05:49:08.876Z,10.26
2023-05-14T05:51:35.212Z,10.35
2023-05-14T05:54:01.540Z,10.39
2023-05-14T05:56:27.896Z,10.46
2023-05-14T05:58:54.224Z,10.52
2023-05-14T06:01:20.585Z,10.60
2023-05-14T06:03:48.527Z,10.68
2023-05-14T06:06:15.485Z,10.74
2023-05-14T06:08:42.026Z,10.78
2023-05-14T06:11:08.442Z,10.94
2023-05-14T06:13:34.748Z,11.00
2023-05-14T06:16:01.262Z,11.07
2023-05-14T06:18:27.718Z,11.15
2023-05-14T06:20:56.585Z,11.27
2023-05-14T06:23:22.955Z,11.31
2023-05-14T06:25:50.832Z,11.39
2023-05-14T06:28:17.424Z,11.46
2023-05-14T06:30:43.776Z,11.66
2023-05-14T06:33:10.320Z,11.84
2023-05-14T06:35:36.959Z,12.00
2023-05-14T06:38:03.620Z,12.23
2023-05-14T06:40:29.989Z,12.39
2023-05-14T06:42:56.321Z,12.58
2023-05-14T06:45:22.688Z,12.73
2023-05-14T06:47:49.080Z,12.82
2023-05-14T06:50:15.466Z,12.97
2023-05-14T06:52:43.494Z,12.99
2023-05-14T06:55:10.081Z,13.21
2023-05-14T06:57:37.310Z,13.29
2023-05-14T07:00:06.516Z,13.55
2023-05-14T07:02:32.931Z,13.71
2023-05-14T07:04:59.450Z,13.79
2023-05-14T07:07:25.931Z,13.93
2023-05-14T07:09:52.335Z,14.15
2023-05-14T07:12:18.650Z,14.34
2023-05-14T07:14:45.067Z,14.45
2023-05-14T07:17:11.486Z,14.72
2023-05-14T07:19:37.885Z,14.68
2023-05-14T07:22:04.515Z,14.84
2023-05-14T07:24:30.824Z,15.07
2023-05-14T07:26:57.789Z,15.13
2023-05-14T07:29:25.401Z,15.23
2023-05-14T07:31:52.080Z,15.46
2023-05-14T07:34:19.273Z,15.56
2023-05-14T07:36:46.176Z,15.56
2023-05-14T07:39:12.598Z,15.82
2023-05-14T07:41:38.897Z,15.92
2023-05-14T07:44:05.693Z,15.98
2023-05-14T07:46:32.001Z,16.19
2023-05-14T07:48:58.289Z,16.16
2023-05-14T07:51:28.071Z,16.36
2023-05-14T07:53:56.410Z,16.44
2023-05-14T07:56:22.912Z,16.36
2023-05-14T07:58:50.927Z,16.53
2023-05-14T08:01:17.626Z,16.86
2023-05-14T08:03:44.012Z,16.77
2023-05-14T08:06:10.396Z,16.68
2023-05-14T08:08:36.799Z,17.12
2023-05-14T08:11:03.762Z,16.98
2023-05-14T08:13:30.485Z,16.86
2023-05-14T08:15:56.812Z,17.13
2023-05-14T08:18:23.194Z,17.21
2023-05-14T08:20:49.607Z,17.34
2023-05-14T08:23:15.930Z,17.47
2023-05-14T08:25:42.264Z,17.79
2023-05-14T08:28:08.685Z,17.79
2023-05-14T08:30:35.029Z,17.69
2023-05-14T08:33:01.595Z,17.73
2023-05-14T08:35:27.884Z,18.26
2023-05-14T08:37:54.305Z,18.08
2023-05-14T08:40:21.308Z,18.23
2023-05-14T08:42:48.365Z,18.06
2023-05-14T08:45:25.503Z,18.13
2023-05-14T08:47:51.963Z,18.05
2023-05-14T08:50:21.883Z,18.33
2023-05-14T08:52:49.415Z,18.73
2023-05-14T08:55:15.791Z,18.66
2023-05-14T08:57:42.244Z,18.55
2023-05-14T09:00:11.905Z,18.90
2023-05-14T09:02:40.587Z,19.01
2023-05-14T09:05:07.416Z,18.87
2023-05-14T09:07:33.828Z,18.84
2023-05-14T09:10:01.880Z,18.75
2023-05-14T09:12:28.418Z,18.61
2023-05-14T09:14:54.793Z,18.40
2023-05-14T09:17:21.316Z,18.19
2023-05-14T09:19:53.274Z,18.19
2023-05-14T09:22:20.367Z,18.27
2023-05-14T09:25:01.214Z,18.06
2023-05-14T09:27:29.865Z,18.29
2023-05-14T09:29:56.202Z,18.21
2023-05-14T09:32:22.544Z,17.96
2023-05-14T09:34:48.924Z,18.06
2023-05-14T09:37:15.257Z,18.24
2023-05-14T09:39:41.596Z,18.12
2023-05-14T09:42:08.294Z,18.10
2023-05-14T09:44:36.243Z,17.95
2023-05-14T09:47:02.671Z,17.89
2023-05-14T09:49:29.166Z,18.25
2023-05-14T09:51:57.753Z,18.22
2023-05-14T09:54:26.411Z,18.38
2023-05-14T09:56:54.539Z,18.31
2023-05-14T09:59:22.117Z,18.50
2023-05-14T10:01:49.802Z,18.52
2023-05-14T10:04:16.528Z,18.46
2023-05-14T10:06:47.725Z,18.72
2023-05-14T10:09:19.565Z,18.76
2023-05-14T10:11:50.138Z,18.80
2023-05-14T10:14:33.488Z,18.61
2023-05-14T10:17:01.611Z,18.26
2023-05-14T10:19:31.877Z,18.72
2023-05-14T10:22:04.860Z,18.68
2023-05-14T10:24:31.713Z,18.43
2023-05-14T10:26:58.737Z,18.35
2023-05-14T10:29:33.900Z,18.10
2023-05-14T10:32:07.656Z,18.21
2023-05-14T10:34:37.825Z,18.31
2023-05-14T10:37:07.676Z,18.33
2023-05-14T10:40:06.086Z,18.12
2023-05-14T10:42:39.589Z,18.25
2023-05-14T10:45:08.647Z,18.18
2023-05-14T10:47:41.771Z,18.14
2023-05-14T10:50:14.089Z,18.28
2023-05-14T10:52:43.292Z,18.22
2023-05-14T10:55:13.313Z,18.38
2023-05-14T10:57:43.700Z,18.36
2023-05-14T11:00:12.456Z,18.61
2023-05-14T11:02:41.225Z,18.72
2023-05-14T11:05:10.393Z,18.75
2023-05-14T11:07:42.711Z,18.56
2023-05-14T11:10:10.697Z,18.66
2023-05-14T11:12:39.549Z,18.76
2023-05-14T11:15:11.179Z,18.86
2023-05-14T11:17:40.307Z,18.71
2023-05-14T11:20:08.003Z,18.53
2023-05-14T11:22:35.701Z,18.61
2023-05-14T11:25:02.372Z,18.82
2023-05-14T11:27:29.953Z,18.86
2023-05-14T11:29:58.002Z,19.02
2023-05-14T11:32:24.503Z,18.73
2023-05-14T11:34:51.304Z,18.67
2023-05-14T11:37:17.757Z,18.76
2023-05-14T11:39:49.972Z,18.93
2023-05-14T11:42:19.447Z,19.04
2023-05-14T11:44:48.837Z,19.01
2023-05-14T11:47:16.666Z,19.27
2023-05-14T11:49:42.954Z,19.44
2023-05-14T11:52:11.691Z,19.73
2023-05-14T11:54:38.117Z,19.68
2023-05-14T11:57:16.507Z,19.82
2023-05-14T11:59:43.369Z,19.94
2023-05-14T12:02:14.521Z,19.87
2023-05-14T12:04:42.708Z,19.85
2023-05-14T12:07:14.824Z,20.12
2023-05-14T12:09:51.222Z,20.11
2023-05-14T12:12:20.319Z,20.07
2023-05-14T12:14:47.358Z,20.11
2023-05-14T12:17:21.780Z,20.26
2023-05-14T12:19:53.075Z,20.45
2023-05-14T12:22:22.097Z,20.67
2023-05-14T12:24:59.516Z,20.77
2023-05-14T12:27:27.742Z,20.39
2023-05-14T12:30:19.782Z,19.86
2023-05-14T12:32:48.615Z,19.84
2023-05-14T12:35:15.089Z,19.76
2023-05-14T12:37:42.528Z,19.81
2023-05-14T12:40:09.638Z,20.01
2023-05-14T12:42:36.443Z,20.33
2023-05-14T12:45:06.918Z,20.30
2023-05-14T12:47:33.336Z,20.19
2023-05-14T12:49:59.790Z,20.38
2023-05-14T12:54:59.927Z,20.34
2023-05-14T12:57:27.708Z,20.29
2023-05-14T12:59:55.223Z,20.51
2023-05-14T13:02:21.848Z,20.72
2023-05-14T13:04:48.243Z,20.80
2023-05-14T13:07:14.596Z,21.17
2023-05-14T13:09:40.880Z,21.12
2023-05-14T13:12:07.628Z,21.41
2023-05-14T13:14:34.010Z,21.49
2023-05-14T13:17:01.015Z,21.40
2023-05-14T13:19:27.405Z,21.75
2023-05-14T13:21:53.773Z,21.01
2023-05-14T13:24:20.121Z,20.95
2023-05-14T13:26:46.556Z,21.05
2023-05-14T13:29:12.865Z,21.52
2023-05-14T13:31:39.201Z,21.41
2023-05-14T13:34:05.619Z,21.13
2023-05-14T13:36:32.202Z,21.46
2023-05-14T13:38:58.553Z,21.61
2023-05-14T13:41:26.134Z,21.47
2023-05-14T13:43:52.489Z,21.42
2023-05-14T13:46:18.809Z,21.76
2023-05-14T13:48:45.130Z,21.65
2023-05-14T13:51:11.419Z,21.79
2023-05-14T13:53:37.759Z,21.95
2023-05-14T13:56:06.322Z,21.73
2023-05-14T13:58:32.705Z,21.62
2023-05-14T14:00:59.097Z,21.20
2023-05-14T14:03:25.513Z,21.02
2023-05-14T14:05:52.486Z,20.66
2023-05-14T14:08:24.000Z,20.54
2023-05-14T14:10:51.557Z,20.81
2023-05-14T14:13:17.935Z,21.12
2023-05-14T14:15:44.346Z,21.35
2023-05-14T14:18:10.840Z,21.30
2023-05-14T14:20:37.285Z,21.50
2023-05-14T14:23:03.670Z,21.49
2023-05-14T14:25:30.035Z,21.59
2023-05-14T14:27:56.518Z,21.71
2023-05-14T14:30:22.892Z,21.69
2023-05-14T14:32:49.853Z,21.55
2023-05-14T14:35:18.085Z,21.52
2023-05-14T14:37:48.919Z,21.48
2023-05-14T14:40:16.459Z,21.22
2023-05-14T14:42:43.319Z,21.40
2023-05-14T14:45:10.298Z,21.44
2023-05-14T14:47:36.793Z,21.52
2023-05-14T14:50:03.294Z,21.16
2023-05-14T14:52:29.848Z,21.13
2023-05-14T14:54:56.401Z,20.89
2023-05-14T14:57:22.893Z,21.07
2023-05-14T14:59:49.391Z,21.27
2023-05-14T15:02:16.192Z,21.28
2023-05-14T15:04:42.755Z,21.33
2023-05-14T15:07:09.155Z,21.19
2023-05-14T15:09:35.524Z,21.62
2023-05-14T15:12:01.948Z,21.54
2023-05-14T15:14:28.422Z,21.60
2023-05-14T15:16:54.918Z,21.85
2023-05-14T15:19:21.347Z,21.91
2023-05-14T15:21:47.776Z,22.03
2023-05-14T15:24:14.204Z,21.90
2023-05-14T15:26:40.912Z,22.02
2023-05-14T15:29:07.731Z,22.06
2023-05-14T15:31:34.668Z,21.75
2023-05-14T15:34:01.154Z,21.89
2023-05-14T15:36:28.506Z,22.00
2023-05-14T15:38:54.903Z,22.12
2023-05-14T15:41:21.334Z,21.83
2023-05-14T15:43:47.792Z,21.80
2023-05-14T15:46:14.237Z,21.71
2023-05-14T15:48:40.610Z,22.27
2023-05-14T15:51:07.711Z,22.01
2023-05-14T15:53:34.174Z,22.06
2023-05-14T15:56:00.626Z,21.96
2023-05-14T15:58:27.020Z,22.23
2023-05-14T16:00:53.386Z,22.64
2023-05-14T16:03:19.773Z,22.41
2023-05-14T16:05:46.786Z,22.63
2023-05-14T16:08:13.123Z,22.64
2023-05-14T16:10:39.594Z,22.80
2023-05-14T16:13:05.968Z,22.64
2023-05-14T16:15:32.356Z,22.38
2023-05-14T16:18:00.096Z,22.15
2023-05-14T16:20:26.594Z,22.02
2023-05-14T16:22:52.956Z,22.02
2023-05-14T16:25:19.438Z,21.78
2023-05-14T16:27:45.882Z,21.39
2023-05-14T16:30:12.507Z,21.20
2023-05-14T16:32:38.829Z,21.72
2023-05-14T16:35:05.428Z,21.64
2023-05-14T16:37:31.776Z,21.57
2023-05-14T16:39:58.117Z,21.17
2023-05-14T16:42:24.486Z,20.83
2023-05-14T16:44:50.984Z,20.85
2023-05-14T16:47:17.289Z,20.36
2023-05-14T16:49:43.626Z,20.22
2023-05-14T16:52:09.988Z,20.31
2023-05-14T16:54:36.413Z,20.13
2023-05-14T16:57:02.840Z,19.96
2023-05-14T16:59:29.203Z,19.93
2023-05-14T17:01:55.982Z,19.58
2023-05-14T17:04:24.789Z,19.61
2023-05-14T17:06:51.200Z,19.74
2023-05-14T17:09:17.649Z,19.59
2023-05-14T17:11:44.043Z,19.63
2023-05-14T17:14:10.436Z,19.31
2023-05-14T17:16:38.696Z,19.24
2023-05-14T17:19:05.111Z,19.31
2023-05-14T17:21:31.656Z,19.23
2023-05-14T17:23:58.315Z,19.12
2023-05-14T17:26:24.676Z,18.88
2023-05-14T17:28:50.993Z,18.64
2023-05-14T17:31:17.362Z,18.63
2023-05-14T17:33:43.794Z,18.45
2023-05-14T17:36:10.202Z,18.35
2023-05-14T17:38:36.552Z,18.27
2023-05-14T17:41:03.186Z,18.19
2023-05-14T17:43:29.670Z,18.16
2023-05-14T17:45:56.122Z,18.13
2023-05-14T17:48:23.844Z,18.05
2023-05-14T17:50:51.591Z,18.00
2023-05-14T17:53:18.100Z,17.97
2023-05-14T17:55:44.672Z,17.74
2023-05-14T17:58:13.394Z,17.77
2023-05-14T18:00:40.231Z,17.76
2023-05-14T18:03:07.815Z,17.72
2023-05-14T18:05:34.784Z,17.61
2023-05-14T18:08:01.177Z,17.65
2023-05-14T18:10:29.364Z,17.64
2023-05-14T18:12:56.280Z,17.61
2023-05-14T18:15:25.568Z,17.64
2023-05-14T18:17:52.800Z,17.69
2023-05-14T18:20:19.609Z,17.53
2023-05-14T18:22:45.932Z,17.49
2023-05-14T18:25:12.884Z,17.52
2023-05-14T18:27:44.384Z,17.71
2023-05-14T18:30:15.798Z,17.84
2023-05-14T18:32:44.026Z,17.66
2023-05-14T18:35:11.571Z,17.41
2023-05-14T18:37:37.982Z,17.26
2023-05-14T18:40:04.978Z,17.26
2023-05-14T18:42:31.477Z,17.26
2023-05-14T18:44:57.815Z,16.95
2023-05-14T18:47:24.238Z,16.91
2023-05-14T18:49:54.775Z,16.87
2023-05-14T18:52:22.572Z,16.76
2023-05-14T18:54:48.946Z,16.59
2023-05-14T18:57:15.338Z,16.57
2023-05-14T18:59:41.710Z,16.51
2023-05-14T19:02:08.084Z,16.47
2023-05-14T19:04:44.235Z,16.31
2023-05-14T19:07:17.456Z,16.35
2023-05-14T19:09:43.830Z,16.33
2023-05-14T19:12:10.188Z,16.28
2023-05-14T19:14:36.490Z,16.28
2023-05-14T19:17:03.117Z,16.30
2023-05-14T19:19:29.428Z,16.41
2023-05-14T19:21:55.748Z,16.42
2023-05-14T19:24:22.101Z,16.28
2023-05-14T19:26:48.511Z,16.33
2023-05-14T19:29:14.836Z,16.27
2023-05-14T19:31:41.215Z,16.27
2023-05-14T19:34:07.631Z,16.28
2023-05-14T19:36:34.078Z,16.28
2023-05-14T19:39:00.457Z,16.31
2023-05-14T19:41:27.632Z,16.31
2023-05-14T19:43:53.991Z,16.23
2023-05-14T19:46:20.468Z,16.19
2023-05-14T19:48:48.387Z,16.23
2023-05-14T19:51:14.797Z,16.22
2023-05-14T19:53:41.163Z,16.20
2023-05-14T19:56:07.499Z,16.23
2023-05-14T19:58:33.892Z,16.11
2023-05-14T20:01:00.708Z,16.05
2023-05-14T20:03:27.242Z,15.99
2023-05-14T20:05:54.815Z,15.94
2023-05-14T20:08:21.426Z,15.91
2023-05-14T20:10:48.478Z,15.93
2023-05-14T20:13:15.056Z,15.74
2023-05-14T20:15:41.887Z,15.78
2023-05-14T20:18:08.569Z,15.74
2023-05-14T20:20:35.514Z,15.71
2023-05-14T20:23:02.052Z,15.60
2023-05-14T20:25:28.890Z,15.50
2023-05-14T20:27:55.425Z,15.46
2023-05-14T20:30:21.806Z,15.37
2023-05-14T20:32:48.196Z,15.33
2023-05-14T20:35:14.743Z,15.35
2023-05-14T20:37:41.296Z,15.29
2023-05-14T20:40:10.327Z,15.31
2023-05-14T20:42:37.104Z,15.25
2023-05-14T20:45:05.028Z,15.16
2023-05-14T20:47:34.091Z,15.10
2023-05-14T20:50:00.938Z,15.12
2023-05-14T20:52:27.516Z,15.04
2023-05-14T20:54:53.926Z,15.13
2023-05-14T20:57:20.439Z,15.08
2023-05-14T20:59:47.401Z,14.98
2023-05-14T21:02:13.821Z,15.01
2023-05-14T21:04:40.535Z,15.14
2023-05-14T21:07:07.151Z,14.91
2023-05-14T21:09:33.509Z,14.82
2023-05-14T21:11:59.872Z,14.87
2023-05-14T21:14:26.259Z,14.79
2023-05-14T21:16:52.777Z,14.75
2023-05-14T21:19:19.464Z,14.68
2023-05-14T21:21:47.187Z,14.72
2023-05-14T21:24:13.533Z,14.55
2023-05-14T21:26:40.298Z,14.39
2023-05-14T21:29:06.859Z,14.42
2023-05-14T21:31:33.250Z,14.43
2023-05-14T21:33:59.581Z,14.45
2023-05-14T21:36:25.947Z,14.45
2023-05-14T21:38:53.461Z,14.39
2023-05-14T21:41:19.821Z,14.35
2023-05-14T21:43:46.788Z,14.32
2023-05-14T21:46:13.209Z,14.19
2023-05-14T21:48:39.642Z,14.23
2023-05-14T21:51:06.466Z,14.13
2023-05-14T21:53:32.843Z,14.05
2023-05-14T21:55:59.142Z,14.03
2023-05-14T21:58:26.737Z,14.00
2023-05-14T22:00:53.058Z,13.84
2023-05-14T22:03:19.502Z,13.78
2023-05-14T22:05:46.010Z,13.75
2023-05-14T22:08:12.346Z,13.63
2023-05-14T22:10:38.683Z,13.57
2023-05-14T22:13:04.991Z,13.54
2023-05-14T22:15:31.321Z,13.55
2023-05-14T22:17:57.669Z,13.50
2023-05-14T22:20:24.149Z,13.45
2023-05-14T22:22:51.425Z,13.39
2023-05-14T22:25:17.783Z,13.35
2023-05-14T22:27:44.169Z,13.36
2023-05-14T22:30:10.990Z,13.33
2023-05-14T22:32:37.443Z,13.34
2023-05-14T22:35:04.051Z,13.34
2023-05-14T22:37:30.433Z,13.32
2023-05-14T22:39:56.742Z,13.31
2023-05-14T22:42:23.078Z,13.34
2023-05-14T22:44:49.369Z,13.29
2023-05-14T22:47:16.345Z,13.25
2023-05-14T22:49:43.510Z,13.27
2023-05-14T22:52:10.104Z,13.28
2023-05-14T22:54:36.501Z,13.35
2023-05-14T22:57:03.441Z,13.35
2023-05-14T22:59:29.766Z,13.39
2023-05-14T23:01:56.098Z,13.32
2023-05-14T23:04:22.522Z,13.25
2023-05-14T23:06:48.859Z,13.16
2023-05-14T23:09:15.254Z,13.15
2023-05-14T23:11:41.680Z,13.14
2023-05-14T23:14:08.304Z,13.10
2023-05-14T23:16:35.222Z,12.97
2023-05-14T23:19:01.724Z,12.89
2023-05-14T23:21:28.163Z,12.80
2023-05-14T23:23:54.537Z,12.70
2023-05-14T23:26:21.674Z,12.58
2023-05-14T23:28:47.977Z,12.55
2023-05-14T23:31:14.307Z,12.52
2023-05-14T23:33:40.954Z,12.42
2023-05-14T23:36:07.943Z,12.41
2023-05-14T23:38:34.399Z,12.36
2023-05-14T23:41:00.747Z,12.27
2023-05-14T23:43:27.154Z,12.17
2023-05-14T23:45:53.655Z,12.04
2023-05-14T23:48:20.048Z,11.90
2023-05-14T23:50:46.410Z,11.84
2023-05-14T23:53:12.780Z,11.84
2023-05-14T23:55:39.372Z,11.77
2023-05-14T23:58:06.176Z,11.83
